Main page
METAR-TAF:

METAR-TAF

Airports :

Baghdad International Airport

Baghdad, Iraq

latitude: 33-15-45N, longitude: 44-14-04E, elevation: 35 m

Current weather observation

The report was made 27 minutes ago, at 20:00 UTC
Wind 19 kt from the West/Northwest
Temperature 36°C
Humidity 24%
Pressure 998 hPa
Visibility: 0650 m

METAR: ORBI 252000Z 30019KT 0650 R33R/0800N DS NSC 36/12 Q0998

Time: 23:27 (20:27 UTC)

Forecast

The report was made 4 hours and 27 minutes ago, at 16:00 UTC
Forecast valid from 25 at 18 UTC to 26 at 18 UTC
Wind 12 kt from the West/Southwest
Visibility: 5000 m
widespread dust
Becoming
from 25 at 19 UTC to 25 at 21 UTC
Wind 20 kt from the West/Northwest
Visibility: 0800 m
Temporary
from 25 at 22 UTC to 25 at 23 UTC
Visibility: 0500 m

TAF: ORBI 251600Z 2518/2618 24012KT 5000 DU NSC BECMG 2519/2521 30020KT 0800 DS TEMPO 2522/2523 0500 VV///

Weather observations and forecasts of more than 4000 airports (METAR and TAF reports).

The available stations are represented by yellow and red dots on the map.

Hover mouse over dot to see the name of the station.

Then click to see weather observations and forecasts.

To change the map : click on the green buttons with a black cross to zoom in, on the green button with a dash to zoom out, or on the green arrows for adjacent maps.


METAR-TAF: